Thunder radar more information blitzortung!


Radar de pluja more information rain snow radar


Visita la nostra xarxa de llocs de meteo:

Template documentation
and downloads

And another site



No particular awareness of the weather is required.    There are no Weather-warnings

Pagina Historial Weather Underground text

Diari Resum Novembre 9, 2017 Unitats:  Mètric    Imperial   Tant
« Previous Dia
SegĂźent Dia »
Diari Setmana Mensual Anual Personalitzada
  Maxima: Minima: Media:
Temperatura: -17.8 °C -15.7 °C -12.9 °C
Punt de rosada: -17.8 °C -19.2 °C -17.3 °C
Humitat: Humidity % 47 % 58 %
Wind Speed: 0 km/h 0 km/h 5.1 km/h
RĂ fegues de vent: 0 km/h - -
Vent:- - ESE
Pression baro: 0 hPa 34601.5 hPa -
Precipitacions: 0 mm    
Historical Graphs
 
 
Dades de taula per Novembre 9, 2017
Temps Temperatura Punt de rosada Pression baro Vent Wind Speed RĂ fegues de vent Humitat Rainfall Rate (Hourly)
-17.8 °C -17.8 °C 0 hPa Calm     Humidity % 0 mm
00:04 -13.4 °C -18.1 °C 34635.4 hPa WSW 9 km/h 9 km/h 55 % 0 mm
00:05 -15.6 °C -19.2 °C 34669.3 hPa NW 2.6 km/h 7.7 km/h 63 % 0 mm
00:15 -15.6 °C -19.1 °C 34669.3 hPa NW 2.6 km/h 7.7 km/h 64 % 0 mm
00:25 -15.6 °C -19.1 °C 34669.3 hPa North 2.6 km/h 7.7 km/h 63 % 0 mm
00:35 -15.6 °C -19 °C 34669.3 hPa NNE 2.6 km/h 7.7 km/h 64 % 0 mm
00:45 -15.6 °C -19.1 °C 34635.4 hPa North 2.6 km/h 5.1 km/h 63 % 0 mm
00:55 -15.6 °C -19.1 °C 34635.4 hPa NW 2.6 km/h 5.1 km/h 64 % 0 mm
01:05 -15.7 °C -19.1 °C 34635.4 hPa Calm   2.6 km/h 64 % 0 mm
01:15 -15.7 °C -19.2 °C 34635.4 hPa SW 2.6 km/h 2.6 km/h 64 % 0 mm
01:25 -15.7 °C -19.2 °C 34635.4 hPa WSW 2.6 km/h 5.1 km/h 64 % 0 mm
01:35 -15.7 °C -19.2 °C 34635.4 hPa West 2.6 km/h 2.6 km/h 64 % 0 mm
01:45 -15.7 °C -19.1 °C 34635.4 hPa WNW 2.6 km/h   65 % 0 mm
01:55 -15.6 °C -18.9 °C 34669.3 hPa NW 2.6 km/h 2.6 km/h 65 % 0 mm
02:05 -15.3 °C -18.6 °C 34669.3 hPa NNE 2.6 km/h 5.1 km/h 65 % 0 mm
02:15 -15.1 °C -18.6 °C 34669.3 hPa NE 2.6 km/h 7.7 km/h 64 % 0 mm
02:25 -15 °C -18.5 °C 34669.3 hPa NE 2.6 km/h 5.1 km/h 64 % 0 mm
02:35 -14.9 °C -18.5 °C 34669.3 hPa NNE 2.6 km/h 10.3 km/h 63 % 0 mm
02:45 -14.7 °C -18.3 °C 34669.3 hPa NNE 5.1 km/h 12.9 km/h 63 % 0 mm
02:55 -14.6 °C -18.2 °C 34635.4 hPa NNE 5.1 km/h 10.3 km/h 63 % 0 mm
03:05 -14.4 °C -18.2 °C 34635.4 hPa NE 12.9 km/h 15.6 km/h 62 % 0 mm
03:15 -14.2 °C -17.9 °C 34669.3 hPa NE 7.7 km/h 10.3 km/h 62 % 0 mm
03:35 -13.6 °C -17.6 °C 34669.3 hPa NE 5.1 km/h 7.7 km/h 61 % 0 mm
03:45 -13.3 °C -17.4 °C 34669.3 hPa NNE 2.6 km/h 7.7 km/h 60 % 0 mm
03:55 -13.4 °C -17.6 °C 34669.3 hPa NNE 7.7 km/h 10.3 km/h 59 % 0 mm
04:05 -13.4 °C -17.6 °C 34669.3 hPa NE 7.7 km/h 12.9 km/h 59 % 0 mm
04:15 -13.2 °C -17.4 °C 34669.3 hPa ENE 5.1 km/h 7.7 km/h 59 % 0 mm
04:25 -13.1 °C -17.4 °C 34669.3 hPa NE 5.1 km/h 15.6 km/h 58 % 0 mm
04:35 -13.1 °C -17.6 °C 34669.3 hPa NNE 7.7 km/h 15.6 km/h 57 % 0 mm
04:45 -12.8 °C -17.1 °C 34669.3 hPa NNE 2.6 km/h 10.3 km/h 58 % 0 mm
04:50 -12.9 °C -17.4 °C 34669.3 hPa NNE 7.7 km/h 10.3 km/h 57 % 0 mm
10:49 -12.9 °C -17.4 °C 34669.3 hPa NE 9 km/h 12.2 km/h 57 % 0 mm
10:50 -12.8 °C -17.3 °C 34669.3 hPa North 9 km/h 9 km/h 57 % 0 mm
10:55 -12.7 °C -17.2 °C 34669.3 hPa North 9 km/h 9 km/h 57 % 0 mm
11:00 -12.5 °C -17 °C 34669.3 hPa WNW 9.8 km/h 9.8 km/h 57 % 0 mm
11:05 -12.4 °C -16.9 °C 34669.3 hPa NNE 11.9 km/h 11.9 km/h 57 % 0 mm
11:10 -12.6 °C -17.3 °C 34669.3 hPa ESE 9 km/h 9 km/h 56 % 0 mm
11:15 -12.6 °C -17.2 °C 34669.3 hPa NE 9 km/h 9 km/h 56 % 0 mm
11:20 -12.3 °C -16.9 °C 34669.3 hPa NE 6 km/h 6 km/h 56 % 0 mm
11:25 -12.3 °C -17.1 °C 34669.3 hPa East 12.2 km/h 12.2 km/h 55 % 0 mm
11:30 -12.3 °C -17.1 °C 34669.3 hPa NE 11.9 km/h 11.9 km/h 55 % 0 mm
11:35 -12.3 °C -17.1 °C 34669.3 hPa WNW 9 km/h 9 km/h 55 % 0 mm
11:40 -12.3 °C -17.1 °C 34669.3 hPa NNE 9 km/h 9 km/h 55 % 0 mm
11:45 -12.2 °C -17 °C 34669.3 hPa ENE 11.9 km/h 11.9 km/h 55 % 0 mm
11:50 -12 °C -16.8 °C 34669.3 hPa NE 8 km/h 8 km/h 55 % 0 mm
11:55 -12.1 °C -17.1 °C 34669.3 hPa ESE 9 km/h 9 km/h 54 % 0 mm
12:00 -12.1 °C -17 °C 34669.3 hPa East 9 km/h 9 km/h 54 % 0 mm
12:05 -11.9 °C -16.8 °C 34669.3 hPa North 8.5 km/h 8.5 km/h 54 % 0 mm
12:10 -11.6 °C -16.4 °C 34669.3 hPa NW 6.3 km/h 6.3 km/h 55 % 0 mm
12:15 -11.6 °C -16.6 °C 34669.3 hPa WSW 7.6 km/h 7.6 km/h 54 % 0 mm
12:20 -11.6 °C -16.6 °C 34635.4 hPa NNE 15 km/h 15 km/h 54 % 0 mm
12:25 -11.6 °C -16.6 °C 34635.4 hPa ENE 9 km/h 9 km/h 54 % 0 mm
12:30 -11.6 °C -16.6 °C 34635.4 hPa NNE 15 km/h 15 km/h 54 % 0 mm
12:35 -11.4 °C -16.4 °C 34635.4 hPa ESE 6.3 km/h   54 % 0 mm
12:40 -11.2 °C -16.3 °C 34635.4 hPa ESE 9 km/h 9 km/h 53 % 0 mm
12:45 -11.1 °C -16.3 °C 34635.4 hPa ENE 6.3 km/h 7.6 km/h 53 % 0 mm
12:50 -11.1 °C -16.3 °C 34635.4 hPa ESE 9 km/h 9 km/h 53 % 0 mm
12:55 -11.1 °C -16.3 °C 34635.4 hPa ENE 9.3 km/h 9.3 km/h 53 % 0 mm
13:00 -11.2 °C -16.5 °C 34635.4 hPa SSE 6 km/h 6 km/h 52 % 0 mm
13:01 -11.1 °C -16.2 °C 34635.4 hPa ESE 6 km/h 6 km/h 53 % 0 mm
13:06 -10.9 °C -16.1 °C 34601.5 hPa NNE 8.5 km/h 8.5 km/h 53 % 0 mm
13:11 -10.9 °C -16.1 °C 34601.5 hPa ESE 6 km/h   53 % 0 mm
13:16 -11.1 °C -16.3 °C 34601.5 hPa ENE 11.9 km/h 11.9 km/h 52 % 0 mm
13:21 -10.9 °C -16.3 °C 34601.5 hPa ESE 9 km/h 9 km/h 52 % 0 mm
13:26 -10.8 °C -16.2 °C 34601.5 hPa ENE 9 km/h 9 km/h 52 % 0 mm
13:31 -10.9 °C -16.2 °C 34601.5 hPa ESE 9.3 km/h 9.3 km/h 52 % 0 mm
13:33 -10.9 °C -16.3 °C 34601.5 hPa ESE 9 km/h 9 km/h 52 % 0 mm
13:38 -10.8 °C -16.2 °C 34601.5 hPa ESE 6 km/h 6 km/h 52 % 0 mm
13:43 -10.7 °C -16 °C 34601.5 hPa East 6.8 km/h 6.8 km/h 52 % 0 mm
13:48 -10.6 °C -15.9 °C 34601.5 hPa NNE 7.6 km/h 7.6 km/h 52 % 0 mm
13:53 -10.5 °C -15.9 °C 34601.5 hPa SW 6 km/h 6 km/h 52 % 0 mm
13:58 -10.4 °C -15.8 °C 34601.5 hPa East 7.6 km/h 7.6 km/h 52 % 0 mm
14:03 -10.4 °C -15.9 °C 34601.5 hPa ESE 9 km/h 9 km/h 51 % 0 mm
14:08 -10.5 °C -16 °C 34601.5 hPa East 15 km/h 15 km/h 51 % 0 mm
14:13 -10.5 °C -16 °C 34601.5 hPa NNE 9 km/h 9 km/h 51 % 0 mm
14:18 -10.5 °C -16.2 °C 34601.5 hPa ESE 15 km/h 15 km/h 50 % 0 mm
14:23 -10.5 °C -16.2 °C 34601.5 hPa East 11.1 km/h 11.1 km/h 50 % 0 mm
14:28 -10.5 °C -16.2 °C 34601.5 hPa ESE 9 km/h 9 km/h 50 % 0 mm
14:33 -10.5 °C -16.2 °C 34601.5 hPa NNE 9.3 km/h 9.3 km/h 50 % 0 mm
14:38 -10.3 °C -15.9 °C 34601.5 hPa NE 11.9 km/h 11.9 km/h 51 % 0 mm
14:43 -10.3 °C -15.9 °C 34601.5 hPa East 15 km/h 15 km/h 50 % 0 mm
14:48 -10.3 °C -16 °C 34601.5 hPa East 11.9 km/h 11.9 km/h 50 % 0 mm
14:53 -10.2 °C -15.9 °C 34601.5 hPa ESE 11.9 km/h 11.9 km/h 50 % 0 mm
14:58 -10.2 °C -15.9 °C 34601.5 hPa ENE 17.9 km/h 17.9 km/h 50 % 0 mm
15:03 -10.2 °C -15.9 °C 34601.5 hPa NE 20.9 km/h 20.9 km/h 50 % 0 mm
15:08 -10.2 °C -15.9 °C 34601.5 hPa NE 11.9 km/h 11.9 km/h 50 % 0 mm
15:13 -10.1 °C -15.9 °C 34601.5 hPa ENE 11.9 km/h 11.9 km/h 49 % 0 mm
15:18 -10.2 °C -16 °C 34601.5 hPa ESE 11.9 km/h 11.9 km/h 49 % 0 mm
15:23 -10.1 °C -16.2 °C 34601.5 hPa WSW 9 km/h 9 km/h 48 % 0 mm
15:28 -9.9 °C -16 °C 34601.5 hPa SSE 6 km/h 6 km/h 48 % 0 mm
15:33 -10.1 °C -16.1 °C 34601.5 hPa SE 11.9 km/h 11.9 km/h 48 % 0 mm
15:38 -10.2 °C -16.2 °C 34601.5 hPa ESE 15 km/h 15 km/h 48 % 0 mm
15:43 -10.2 °C -16.2 °C 34601.5 hPa ESE 15 km/h 15 km/h 48 % 0 mm
15:48 -10.2 °C -16.4 °C 34601.5 hPa ESE 6.8 km/h 6.8 km/h 47 % 0 mm
15:53 -10.2 °C -16.3 °C 34601.5 hPa ESE 10.3 km/h 10.3 km/h 47 % 0 mm
15:58 -10.1 °C -16.1 °C 34601.5 hPa East 7.6 km/h 7.6 km/h 48 % 0 mm
16:03 -10.1 °C -16.2 °C 34601.5 hPa ESE 9 km/h 9 km/h 47 % 0 mm
16:08 -10.2 °C -16.3 °C 34601.5 hPa SSE 6 km/h 6 km/h 47 % 0 mm
16:13 -10.1 °C -16.1 °C 34601.5 hPa WSW 6 km/h 6 km/h 48 % 0 mm
16:18 -10.1 °C -16.1 °C 34601.5 hPa WSW 9 km/h 9 km/h 48 % 0 mm
16:23 -10.1 °C -16.1 °C 34601.5 hPa Calm     48 % 0 mm
16:28 -10.1 °C -16.3 °C 34601.5 hPa SE 4.2 km/h   47 % 0 mm
16:33 -10.3 °C -16.4 °C 34601.5 hPa ESE 9 km/h 9 km/h 47 % 0 mm
16:38 -10.4 °C -16.4 °C 34601.5 hPa SE 9 km/h 9 km/h 48 % 0 mm
16:43 -10.6 °C -16.6 °C 34601.5 hPa ESE 11.1 km/h 11.1 km/h 48 % 0 mm
16:48 -10.7 °C -16.6 °C 34601.5 hPa SE 9 km/h 9 km/h 48 % 0 mm
16:53 -10.7 °C -16.5 °C 34635.4 hPa South 9 km/h 9 km/h 49 % 0 mm
16:58 -10.7 °C -16.6 °C 34635.4 hPa NNE 6 km/h 6 km/h 49 % 0 mm
17:03 -10.8 °C -16.6 °C 34635.4 hPa NE 3.7 km/h   49 % 0 mm
17:08 -10.9 °C -16.5 °C 34635.4 hPa NNE 3.1 km/h 3.1 km/h 50 % 0 mm
17:13 -10.9 °C -16.6 °C 34635.4 hPa Calm     50 % 0 mm
17:18 -11 °C -16.6 °C 34635.4 hPa Calm     50 % 0 mm
17:23 -11.1 °C -16.7 °C 34635.4 hPa NNE 3.1 km/h   50 % 0 mm
17:28 -11.1 °C -16.7 °C 34635.4 hPa NNW 6 km/h 6 km/h 50 % 0 mm
17:33 -11.2 °C -16.8 °C 34635.4 hPa NNW 3.1 km/h   50 % 0 mm
17:38 -11.3 °C -16.9 °C 34635.4 hPa Calm     50 % 0 mm
17:43 -11.3 °C -16.9 °C 34635.4 hPa NE 4.2 km/h 4.2 km/h 50 % 0 mm
17:48 -11.5 °C -16.9 °C 34635.4 hPa NNE 6.8 km/h 6.8 km/h 51 % 0 mm
17:53 -11.6 °C -17.1 °C 34635.4 hPa NNE 6.3 km/h 6.3 km/h 51 % 0 mm
17:58 -11.7 °C -17.1 °C 34635.4 hPa NNE 9 km/h 9 km/h 51 % 0 mm
18:03 -11.6 °C -17 °C 34635.4 hPa NNE 11.9 km/h 11.9 km/h 51 % 0 mm
18:08 -11.6 °C -17.1 °C 34635.4 hPa NNE 11.9 km/h 11.9 km/h 51 % 0 mm
18:13 -11.7 °C -17.1 °C 34635.4 hPa NE 9 km/h 9 km/h 51 % 0 mm
18:15 -14.9 °C -17.9 °C 34740.4 hPa Calm   7.7 km/h 68 % 0 mm
18:18 -11.7 °C -17 °C 34635.4 hPa NNE 6 km/h 6 km/h 52 % 0 mm
18:23 -11.8 °C -17.1 °C 34635.4 hPa Calm     52 % 0 mm
18:25 -15 °C -17.9 °C 34740.4 hPa South 2.6 km/h 2.6 km/h 69 % 0 mm
18:28 -11.9 °C -17.1 °C 34635.4 hPa NNW 5.6 km/h 5.6 km/h 52 % 0 mm
18:33 -12 °C -17.3 °C 34635.4 hPa NNE 6 km/h 6 km/h 52 % 0 mm
18:35 -15 °C -17.9 °C 34740.4 hPa Calm   2.6 km/h 69 % 0 mm
18:38 -12.1 °C -17.3 °C 34635.4 hPa NE 6 km/h 6 km/h 52 % 0 mm
18:43 -12.2 °C -17.4 °C 34635.4 hPa NNE 9 km/h 9 km/h 52 % 0 mm
18:45 -14.9 °C -17.8 °C 34740.4 hPa Calm     69 % 0 mm
18:48 -12.2 °C -17.3 °C 34635.4 hPa ENE 9 km/h 9 km/h 53 % 0 mm
18:53 -12.2 °C -17.3 °C 34669.3 hPa NNE 6 km/h 6 km/h 53 % 0 mm
18:55 -15.1 °C -17.8 °C 34740.4 hPa Calm     70 % 0 mm
18:58 -12.3 °C -17.3 °C 34669.3 hPa NNW 3.1 km/h   53 % 0 mm
19:03 -12.4 °C -17.4 °C 34669.3 hPa NNW 3.1 km/h   53 % 0 mm
19:05 -15.1 °C -18 °C 34740.4 hPa NNW 2.6 km/h 5.1 km/h 69 % 0 mm
19:08 -12.4 °C -17.5 °C 34669.3 hPa NNE 6 km/h   53 % 0 mm
19:13 -12.6 °C -17.4 °C 34669.3 hPa NNE 6.3 km/h 6.3 km/h 54 % 0 mm
19:15 -15.2 °C -17.9 °C 34740.4 hPa Calm   5.1 km/h 70 % 0 mm
19:18 -12.6 °C -17.6 °C 34669.3 hPa NNE 3.1 km/h 3.1 km/h 54 % 0 mm
19:23 -12.7 °C -17.6 °C 34669.3 hPa North 3.1 km/h   54 % 0 mm
19:25 -15.3 °C -18.1 °C 34740.4 hPa Calm   2.6 km/h 70 % 0 mm
19:28 -12.7 °C -17.6 °C 34669.3 hPa NNW 3.1 km/h   54 % 0 mm
19:33 -12.8 °C -17.6 °C 34669.3 hPa NNW 3.1 km/h 3.1 km/h 55 % 0 mm
19:35 -15.4 °C -18.3 °C 34740.4 hPa Calm   5.1 km/h 69 % 0 mm
19:38 -12.8 °C -17.6 °C 34635.4 hPa NNW 3.1 km/h   55 % 0 mm
19:43 -12.8 °C -17.6 °C 34635.4 hPa Calm     55 % 0 mm
19:45 -15.3 °C -18.2 °C 34740.4 hPa SSW 2.6 km/h 5.1 km/h 69 % 0 mm
19:48 -12.8 °C -17.6 °C 34635.4 hPa NE 6 km/h 6 km/h 55 % 0 mm
19:53 -12.9 °C -17.5 °C 34635.4 hPa Calm     56 % 0 mm
19:55 -15.4 °C -18.2 °C 34740.4 hPa Calm   2.6 km/h 70 % 0 mm
19:58 -12.9 °C -17.5 °C 34635.4 hPa North 3.1 km/h   56 % 0 mm
20:03 -12.9 °C -17.6 °C 34635.4 hPa Calm     56 % 0 mm
20:05 -15.3 °C -18.1 °C 34740.4 hPa NNE 2.6 km/h 5.1 km/h 70 % 0 mm
20:08 -12.9 °C -17.6 °C 34669.3 hPa Calm     56 % 0 mm
20:13 -13.1 °C -17.6 °C 34669.3 hPa NNW 3.1 km/h   57 % 0 mm
20:15 -15.3 °C -18.1 °C 34703.1 hPa Calm   2.6 km/h 70 % 0 mm
20:18 -13.1 °C -17.6 °C 34669.3 hPa NNE 4.2 km/h   57 % 0 mm
20:23 -13.1 °C -17.6 °C 34669.3 hPa Calm     57 % 0 mm
20:25 -15.3 °C -18.1 °C 34703.1 hPa Calm   2.6 km/h 70 % 0 mm
20:28 -13.1 °C -17.6 °C 34669.3 hPa NNE 6 km/h 6 km/h 57 % 0 mm
20:33 -13 °C -17.3 °C 34669.3 hPa Calm     58 % 0 mm
20:35 -15.3 °C -18.1 °C 34703.1 hPa NW 2.6 km/h 5.1 km/h 70 % 0 mm
20:38 -13 °C -17.3 °C 34669.3 hPa NE 3.1 km/h 3.1 km/h 58 % 0 mm
20:43 -13.1 °C -17.4 °C 34669.3 hPa Calm     58 % 0 mm
20:45 -15.3 °C -18.2 °C 34740.4 hPa North 2.6 km/h 5.1 km/h 69 % 0 mm
20:48 -13.2 °C -17.4 °C 34669.3 hPa WNW 3.1 km/h   59 % 0 mm
20:53 -13.2 °C -17.4 °C 34669.3 hPa Calm     59 % 0 mm
20:55 -15.2 °C -18.1 °C 34740.4 hPa NNE 2.6 km/h 2.6 km/h 69 % 0 mm
20:58 -13.3 °C -17.4 °C 34669.3 hPa Calm     59 % 0 mm
21:03 -13.3 °C -17.4 °C 34669.3 hPa Calm     60 % 0 mm
21:05 -15.2 °C -18.1 °C 34740.4 hPa North 2.6 km/h 5.1 km/h 69 % 0 mm
21:08 -13.4 °C -17.4 °C 34669.3 hPa WNW 3.1 km/h 3.1 km/h 60 % 0 mm
21:13 -13.4 °C -17.4 °C 34669.3 hPa WNW 6 km/h 6 km/h 60 % 0 mm
21:15 -15.2 °C -18.1 °C 34703.1 hPa Calm   2.6 km/h 69 % 0 mm
21:18 -13.4 °C -17.4 °C 34669.3 hPa Calm     60 % 0 mm
21:23 -13.4 °C -17.4 °C 34669.3 hPa Calm     60 % 0 mm
21:25 -15.2 °C -18.2 °C 34703.1 hPa Calm   5.1 km/h 68 % 0 mm
21:28 -13.4 °C -17.4 °C 34669.3 hPa Calm     61 % 0 mm
21:33 -13.3 °C -17.3 °C 34669.3 hPa ESE 9 km/h 9 km/h 61 % 0 mm
21:35 -15.2 °C -18.2 °C 34703.1 hPa West 2.6 km/h 5.1 km/h 68 % 0 mm
21:38 -13.3 °C -17.1 °C 34669.3 hPa East 3.1 km/h   62 % 0 mm
21:43 -13.3 °C -17.1 °C 34669.3 hPa ESE 6 km/h 6 km/h 62 % 0 mm
21:45 -15.3 °C -18.3 °C 34703.1 hPa West 2.6 km/h 2.6 km/h 68 % 0 mm
21:48 -13.4 °C -17.2 °C 34669.3 hPa Calm     62 % 0 mm
21:53 -13.4 °C -17.2 °C 34703.1 hPa Calm     62 % 0 mm
21:58 -13.4 °C -17.3 °C 34703.1 hPa Calm     62 % 0 mm
22:03 -13.6 °C -17.4 °C 34703.1 hPa Calm     61 % 0 mm
22:05 -15.3 °C -18.4 °C 34703.1 hPa West 5.1 km/h 7.7 km/h 67 % 0 mm
22:08 -13.6 °C -17.4 °C 34703.1 hPa Calm     61 % 0 mm
22:13 -13.6 °C -17.4 °C 34703.1 hPa Calm     62 % 0 mm
22:15 -15.3 °C -18.3 °C 34740.4 hPa West 2.6 km/h 5.1 km/h 68 % 0 mm
22:18 -13.6 °C -17.4 °C 34703.1 hPa Calm     62 % 0 mm
22:23 -13.7 °C -17.3 °C 34703.1 hPa Calm     63 % 0 mm
22:24 -13.7 °C -17.3 °C 34703.1 hPa Calm     63 % 0 mm
22:25 -15.3 °C -18.3 °C 34740.4 hPa NNW 2.6 km/h 5.1 km/h 68 % 0 mm
22:29 -13.7 °C -17.4 °C 34703.1 hPa Calm     63 % 0 mm
22:34 -13.8 °C -17.4 °C 34703.1 hPa ENE 3.1 km/h 3.1 km/h 63 % 0 mm
22:35 -15.3 °C -18.3 °C 34740.4 hPa Calm   5.1 km/h 68 % 0 mm
22:39 -13.9 °C -17.6 °C 34740.4 hPa NNE 3.1 km/h 3.1 km/h 63 % 0 mm
22:44 -14 °C -17.6 °C 34740.4 hPa Calm     64 % 0 mm
22:45 -15.3 °C -18.3 °C 34740.4 hPa Calm   2.6 km/h 68 % 0 mm
22:49 -14.1 °C -17.6 °C 34740.4 hPa ESE 6 km/h 6 km/h 64 % 0 mm
22:54 -14.2 °C -17.7 °C 34703.1 hPa South 3.1 km/h 3.1 km/h 64 % 0 mm
22:55 -15.3 °C -18.3 °C 34740.4 hPa NNW 5.1 km/h 7.7 km/h 68 % 0 mm
22:59 -14.2 °C -17.7 °C 34703.1 hPa Calm     64 % 0 mm
23:04 -14.3 °C -17.7 °C 34703.1 hPa Calm     65 % 0 mm
23:05 -15.3 °C -18.3 °C 34740.4 hPa NNE 2.6 km/h 5.1 km/h 68 % 0 mm
23:09 -14.4 °C -17.8 °C 34740.4 hPa Calm     65 % 0 mm
23:14 -14.6 °C -18.1 °C 34740.4 hPa SW 6.3 km/h 6.3 km/h 64 % 0 mm
23:15 -15.3 °C -18.3 °C 34740.4 hPa NE 5.1 km/h 7.7 km/h 68 % 0 mm
23:19 -14.6 °C -18.1 °C 34740.4 hPa SW 6.3 km/h 6.3 km/h 64 % 0 mm
23:24 -14.7 °C -18.2 °C 34740.4 hPa SW 6 km/h 6 km/h 64 % 0 mm
23:25 -15.4 °C -18.4 °C 34740.4 hPa NNE 2.6 km/h 10.3 km/h 68 % 0 mm
23:29 -14.7 °C -18.1 °C 34740.4 hPa SSW 6 km/h 6 km/h 65 % 0 mm
23:34 -14.8 °C -18 °C 34740.4 hPa Calm     66 % 0 mm
23:35 -15.3 °C -18.3 °C 34740.4 hPa North 2.6 km/h 5.1 km/h 68 % 0 mm
23:39 -14.8 °C -17.9 °C 34703.1 hPa ENE 6 km/h 6 km/h 67 % 0 mm
23:44 -14.8 °C -17.9 °C 34703.1 hPa Calm     67 % 0 mm
23:45 -15.3 °C -18.3 °C 34740.4 hPa NE 2.6 km/h 5.1 km/h 68 % 0 mm
23:49 -14.8 °C -17.9 °C 34703.1 hPa Calm     67 % 0 mm
23:54 -14.9 °C -17.9 °C 34740.4 hPa Calm     68 % 0 mm
23:55 -15.3 °C -18.3 °C 34740.4 hPa NE 5.1 km/h 5.1 km/h 68 % 0 mm
23:59 -14.9 °C -17.9 °C 34740.4 hPa Calm     68 % 0 mm
Meteo Sesrovires
Elogis d' Weather Underground - 2 mb

Guio original per  Jim McMurry - jmcmurry@mwt.net Adaptat per a la plantilla per  Wim van der Kuil - Leuven-Template.eu

Trobareu la nostra informacio del temps tambe a:

Weather Underground

AWEKAS